createdAt,value
2022-07-27T00:01:05.809Z,1.70
2022-07-27T00:03:35.055Z,1.60
2022-07-27T00:06:03.114Z,1.67
2022-07-27T00:08:31.020Z,1.67
2022-07-27T00:10:58.806Z,1.53
2022-07-27T00:13:27.420Z,1.77
2022-07-27T00:15:55.768Z,1.50
2022-07-27T00:18:24.165Z,1.57
2022-07-27T00:20:53.340Z,1.80
2022-07-27T00:23:21.087Z,1.70
2022-07-27T00:25:48.927Z,1.67
2022-07-27T00:28:16.699Z,1.60
2022-07-27T00:30:44.636Z,1.57
2022-07-27T00:33:17.083Z,1.70
2022-07-27T00:35:45.852Z,1.60
2022-07-27T00:38:16.485Z,1.53
2022-07-27T00:40:45.084Z,1.67
2022-07-27T00:43:13.135Z,1.40
2022-07-27T00:45:41.635Z,1.57
2022-07-27T00:48:09.651Z,1.70
2022-07-27T00:50:38.650Z,1.60
2022-07-27T00:53:06.659Z,1.77
2022-07-27T00:55:36.319Z,1.60
2022-07-27T00:58:05.891Z,1.60
2022-07-27T01:00:33.682Z,1.67
2022-07-27T01:03:02.423Z,1.70
2022-07-27T01:05:40.070Z,1.77
2022-07-27T01:08:13.912Z,1.63
2022-07-27T01:10:44.407Z,1.60
2022-07-27T01:13:13.663Z,1.87
2022-07-27T01:15:42.776Z,1.60
2022-07-27T01:18:12.908Z,1.60
2022-07-27T01:20:41.417Z,1.67
2022-07-27T01:23:10.961Z,1.70
2022-07-27T01:25:41.235Z,1.90
2022-07-27T01:28:08.947Z,1.80
2022-07-27T01:30:37.014Z,1.67
2022-07-27T01:33:06.563Z,1.90
2022-07-27T01:35:35.143Z,1.50
2022-07-27T01:38:03.284Z,1.73
2022-07-27T01:40:34.002Z,1.77
2022-07-27T01:43:01.871Z,1.90
2022-07-27T01:45:29.919Z,1.60
2022-07-27T01:47:57.770Z,1.90
2022-07-27T01:50:25.533Z,1.80
2022-07-27T01:52:53.325Z,1.87
2022-07-27T01:55:21.131Z,1.77
2022-07-27T01:57:50.501Z,1.73
2022-07-27T02:00:18.712Z,1.70
2022-07-27T02:02:46.511Z,1.97
2022-07-27T02:05:14.434Z,1.70
2022-07-27T02:07:42.913Z,2.13
2022-07-27T02:10:11.697Z,2.07
2022-07-27T02:12:38.641Z,1.83
2022-07-27T02:15:14.799Z,2.00
2022-07-27T02:17:44.783Z,2.00
2022-07-27T02:20:15.259Z,2.00
2022-07-27T02:22:43.223Z,1.60
2022-07-27T02:25:12.595Z,2.10
2022-07-27T02:27:41.072Z,1.90
2022-07-27T02:30:11.982Z,2.07
2022-07-27T02:32:40.649Z,2.10
2022-07-27T02:35:18.558Z,2.00
2022-07-27T02:37:47.099Z,1.90
2022-07-27T02:40:17.024Z,1.90
2022-07-27T02:42:45.079Z,1.83
2022-07-27T02:45:14.385Z,2.07
2022-07-27T02:47:42.241Z,2.10
2022-07-27T02:50:10.698Z,2.20
2022-07-27T02:52:39.170Z,2.20
2022-07-27T02:55:08.399Z,2.10
2022-07-27T02:57:39.681Z,2.20
2022-07-27T03:00:10.184Z,2.23
2022-07-27T03:02:39.439Z,2.10
2022-07-27T03:05:08.568Z,1.90
2022-07-27T03:07:36.531Z,2.00
2022-07-27T03:10:05.138Z,1.97
2022-07-27T03:12:32.915Z,1.87
2022-07-27T03:15:00.751Z,2.00
2022-07-27T03:17:28.596Z,1.97
2022-07-27T03:19:57.721Z,2.07
2022-07-27T03:22:25.490Z,2.00
2022-07-27T03:24:53.283Z,1.90
2022-07-27T03:27:21.010Z,1.90
2022-07-27T03:29:48.802Z,2.00
2022-07-27T03:32:16.616Z,2.43
2022-07-27T03:34:44.401Z,2.00
2022-07-27T03:37:13.549Z,2.27
2022-07-27T03:39:41.270Z,2.40
2022-07-27T03:42:09.246Z,2.07
2022-07-27T03:44:37.027Z,2.27
2022-07-27T03:47:04.851Z,2.00
2022-07-27T03:49:33.017Z,2.17
2022-07-27T03:52:00.793Z,2.10
2022-07-27T03:54:29.947Z,2.20
2022-07-27T03:56:57.730Z,2.07
2022-07-27T03:59:27.474Z,2.20
2022-07-27T04:01:55.901Z,2.30
2022-07-27T04:04:23.767Z,2.13
2022-07-27T04:06:51.555Z,2.33
2022-07-27T04:09:19.440Z,2.27
2022-07-27T04:11:50.659Z,2.20
2022-07-27T04:14:19.319Z,2.40
2022-07-27T04:16:47.910Z,2.43
2022-07-27T04:19:16.305Z,2.80
2022-07-27T04:21:44.219Z,2.23
2022-07-27T04:24:12.042Z,2.23
2022-07-27T04:26:39.851Z,2.30
2022-07-27T04:29:09.307Z,2.10
2022-07-27T04:31:37.602Z,2.40
2022-07-27T04:34:05.379Z,2.23
2022-07-27T04:36:33.144Z,2.30
2022-07-27T04:39:00.951Z,2.20
2022-07-27T04:41:30.222Z,2.27
2022-07-27T04:43:58.525Z,2.20
2022-07-27T04:46:29.509Z,2.43
2022-07-27T04:48:57.595Z,2.10
2022-07-27T04:51:25.482Z,2.20
2022-07-27T04:53:58.593Z,2.27
2022-07-27T04:56:27.244Z,2.00
2022-07-27T04:58:55.412Z,2.30
2022-07-27T05:01:25.469Z,2.07
2022-07-27T05:03:55.533Z,2.30
2022-07-27T05:06:23.327Z,2.00
2022-07-27T05:08:51.096Z,2.23
2022-07-27T05:11:19.083Z,2.10
2022-07-27T05:13:46.862Z,2.27
2022-07-27T05:16:14.693Z,1.90
2022-07-27T05:18:42.492Z,2.03
2022-07-27T05:21:11.622Z,1.83
2022-07-27T05:23:47.081Z,2.10
2022-07-27T05:26:14.828Z,1.90
2022-07-27T05:28:42.684Z,2.10
2022-07-27T05:31:10.451Z,2.00
2022-07-27T05:33:38.248Z,2.00
2022-07-27T05:36:07.754Z,2.10
2022-07-27T05:38:40.125Z,1.87
2022-07-27T05:41:11.938Z,1.90
2022-07-27T05:43:39.825Z,1.83
2022-07-27T05:46:07.745Z,1.90
2022-07-27T05:48:35.660Z,1.87
2022-07-27T05:51:03.433Z,2.03
2022-07-27T05:53:31.202Z,3.10
2022-07-27T05:56:00.355Z,2.07
2022-07-27T05:58:29.411Z,1.80
2022-07-27T06:00:57.493Z,1.93
2022-07-27T06:03:25.418Z,1.97
2022-07-27T06:06:13.342Z,2.10
2022-07-27T06:08:40.152Z,2.20
2022-07-27T06:11:09.302Z,2.40
2022-07-27T06:13:37.130Z,1.90
2022-07-27T06:16:10.197Z,2.10
2022-07-27T06:18:38.087Z,2.10
2022-07-27T06:21:06.019Z,2.23
2022-07-27T06:23:33.832Z,1.90
2022-07-27T06:26:01.690Z,1.93
2022-07-27T06:28:30.878Z,1.87
2022-07-27T06:30:58.909Z,1.80
2022-07-27T06:33:29.371Z,1.80
2022-07-27T06:35:58.683Z,1.97
2022-07-27T06:38:27.377Z,1.87
2022-07-27T06:40:56.150Z,1.80
2022-07-27T06:43:25.585Z,1.60
2022-07-27T06:45:56.104Z,1.50
2022-07-27T06:48:23.960Z,1.50
2022-07-27T06:50:52.430Z,1.50
2022-07-27T06:53:21.781Z,1.60
2022-07-27T06:55:49.829Z,1.70
2022-07-27T06:58:17.743Z,1.60
2022-07-27T07:00:46.242Z,1.70
2022-07-27T07:03:15.484Z,1.57
2022-07-27T07:05:45.784Z,1.70
2022-07-27T07:08:14.679Z,1.70
2022-07-27T07:10:44.757Z,1.80
2022-07-27T07:13:13.442Z,1.77
2022-07-27T07:15:43.194Z,1.70
2022-07-27T07:18:12.386Z,1.80
2022-07-27T07:20:42.186Z,1.80
2022-07-27T07:23:10.909Z,1.70
2022-07-27T07:25:40.719Z,1.80
2022-07-27T07:28:08.920Z,1.60
2022-07-27T07:30:37.324Z,1.60
2022-07-27T07:33:05.589Z,1.70
2022-07-27T07:35:33.542Z,1.70
2022-07-27T07:38:03.181Z,1.60
2022-07-27T07:40:46.502Z,1.50
2022-07-27T07:43:14.995Z,1.60
2022-07-27T07:45:50.410Z,1.85
2022-07-27T07:48:20.813Z,1.83
2022-07-27T07:50:52.464Z,1.63
2022-07-27T07:53:23.466Z,1.60
2022-07-27T07:55:52.044Z,1.95
2022-07-27T07:58:20.118Z,1.75
2022-07-27T08:00:48.197Z,1.80
2022-07-27T08:03:16.465Z,1.80
2022-07-27T08:05:44.393Z,1.50
2022-07-27T08:08:12.241Z,1.50
2022-07-27T08:10:41.524Z,1.70
2022-07-27T08:13:09.732Z,1.50
2022-07-27T08:15:37.573Z,1.58
2022-07-27T08:18:06.369Z,1.60
2022-07-27T08:20:35.457Z,1.60
2022-07-27T08:23:03.723Z,1.63
2022-07-27T08:25:31.878Z,1.63
2022-07-27T08:28:02.755Z,1.60
2022-07-27T08:30:33.040Z,1.40
2022-07-27T08:33:03.357Z,1.60
2022-07-27T08:35:32.737Z,2.10
2022-07-27T08:38:01.843Z,1.80
2022-07-27T08:40:40.419Z,1.70
2022-07-27T08:43:10.863Z,1.60
2022-07-27T08:45:41.217Z,1.52
2022-07-27T08:48:13.541Z,1.70
2022-07-27T08:50:42.784Z,1.50
2022-07-27T08:53:12.340Z,1.60
2022-07-27T08:55:41.642Z,1.52
2022-07-27T08:58:12.238Z,1.70
2022-07-27T09:00:42.303Z,1.80
2022-07-27T09:03:18.195Z,1.75
2022-07-27T09:05:48.890Z,1.58
2022-07-27T09:08:21.395Z,1.52
2022-07-27T09:10:50.172Z,1.73
2022-07-27T09:13:21.718Z,1.80
2022-07-27T09:18:40.605Z,1.70
2022-07-27T09:21:13.121Z,1.50
2022-07-27T09:23:42.344Z,1.65
2022-07-27T09:26:24.792Z,1.60
2022-07-27T09:29:01.690Z,1.63
2022-07-27T09:31:29.707Z,1.67
2022-07-27T09:33:59.367Z,1.42
2022-07-27T09:36:28.856Z,1.50
2022-07-27T09:39:11.313Z,1.33
2022-07-27T09:41:45.733Z,1.45
2022-07-27T09:44:32.821Z,1.52
2022-07-27T09:47:01.256Z,1.70
2022-07-27T09:49:32.162Z,1.50
2022-07-27T09:52:02.040Z,1.40
2022-07-27T09:54:43.308Z,1.63
2022-07-27T09:57:11.621Z,1.30
2022-07-27T09:59:40.864Z,1.40
2022-07-27T10:02:09.349Z,1.35
2022-07-27T10:04:37.258Z,1.30
2022-07-27T10:07:08.298Z,1.27
2022-07-27T10:09:40.436Z,1.30
2022-07-27T10:12:09.508Z,1.38
2022-07-27T10:14:37.540Z,1.10
2022-07-27T10:17:07.763Z,1.45
2022-07-27T10:19:42.313Z,1.40
2022-07-27T10:22:10.030Z,1.38
2022-07-27T10:24:37.942Z,1.40
2022-07-27T10:27:22.947Z,1.45
2022-07-27T10:29:51.853Z,1.30
2022-07-27T10:32:30.978Z,1.20
2022-07-27T10:34:59.564Z,1.48
2022-07-27T10:37:29.591Z,1.40
2022-07-27T10:40:16.800Z,1.45
2022-07-27T10:42:50.425Z,1.50
2022-07-27T10:45:22.038Z,1.40
2022-07-27T10:47:52.802Z,1.40
2022-07-27T10:50:32.522Z,1.30
2022-07-27T10:53:06.673Z,1.30
2022-07-27T10:55:48.339Z,1.50
2022-07-27T10:58:52.583Z,1.30
2022-07-27T11:01:22.824Z,1.50
2022-07-27T11:03:56.154Z,1.90
2022-07-27T11:06:33.425Z,1.58
2022-07-27T11:11:59.275Z,1.70
2022-07-27T11:14:30.635Z,1.40
2022-07-27T11:19:54.874Z,1.80
2022-07-27T11:25:24.526Z,2.03
2022-07-27T11:27:52.690Z,1.83
2022-07-27T11:30:24.623Z,1.80
2022-07-27T11:32:52.540Z,1.42
2022-07-27T11:35:22.074Z,1.60
2022-07-27T11:38:03.002Z,1.42
2022-07-27T11:41:12.938Z,1.63
2022-07-27T11:43:38.677Z,1.80
2022-07-27T11:46:19.354Z,1.60
2022-07-27T11:49:17.900Z,1.52
2022-07-27T11:51:44.481Z,1.50
2022-07-27T11:54:14.540Z,1.60
2022-07-27T11:56:46.026Z,1.50
2022-07-27T11:59:16.820Z,1.70
2022-07-27T12:01:48.809Z,1.70
2022-07-27T12:04:23.682Z,1.88
2022-07-27T12:07:06.866Z,1.80
2022-07-27T12:09:38.691Z,1.70
2022-07-27T12:12:15.182Z,1.70
2022-07-27T12:14:45.927Z,1.70
2022-07-27T12:17:32.014Z,1.85
2022-07-27T12:20:02.567Z,1.73
2022-07-27T12:22:35.270Z,1.52
2022-07-27T12:25:12.590Z,1.60
2022-07-27T12:27:54.848Z,1.90
2022-07-27T12:30:31.241Z,1.88
2022-07-27T12:32:59.826Z,1.60
2022-07-27T12:35:35.959Z,1.70
2022-07-27T12:38:07.503Z,1.80
2022-07-27T12:40:36.608Z,1.70
2022-07-27T12:43:06.487Z,1.63
2022-07-27T12:45:36.419Z,1.60
2022-07-27T12:48:13.280Z,1.48
2022-07-27T12:50:42.583Z,1.60
2022-07-27T12:53:13.811Z,1.70
2022-07-27T12:55:42.431Z,1.90
2022-07-27T12:58:15.472Z,1.50
2022-07-27T13:00:43.729Z,1.58
2022-07-27T13:03:11.588Z,1.48
2022-07-27T13:05:39.398Z,1.63
2022-07-27T13:08:10.465Z,1.85
2022-07-27T13:10:39.610Z,1.60
2022-07-27T13:13:09.443Z,1.50
2022-07-27T13:15:37.627Z,1.60
2022-07-27T13:18:08.284Z,1.60
2022-07-27T13:20:36.517Z,1.42
2022-07-27T13:23:05.521Z,1.52
2022-07-27T13:25:33.293Z,1.65
2022-07-27T13:28:02.411Z,1.80
2022-07-27T13:30:30.432Z,1.60
2022-07-27T13:32:58.925Z,1.70
2022-07-27T13:35:26.707Z,1.73
2022-07-27T13:37:54.670Z,1.70
2022-07-27T13:40:22.876Z,1.40
2022-07-27T13:42:50.631Z,1.70
2022-07-27T13:45:19.716Z,1.67
2022-07-27T13:47:47.544Z,1.70
2022-07-27T13:50:19.509Z,1.70
2022-07-27T13:52:48.472Z,1.73
2022-07-27T13:55:17.306Z,1.52
2022-07-27T13:57:45.292Z,2.10
2022-07-27T14:00:14.215Z,1.67
2022-07-27T14:02:43.592Z,1.60
2022-07-27T14:05:14.567Z,1.75
2022-07-27T14:07:43.963Z,1.77
2022-07-27T14:10:30.423Z,1.80
2022-07-27T14:13:08.423Z,1.42
2022-07-27T14:15:50.331Z,1.70
2022-07-27T14:18:25.392Z,1.70
2022-07-27T14:20:54.119Z,1.73
2022-07-27T14:23:22.249Z,1.60
2022-07-27T14:25:51.347Z,1.70
2022-07-27T14:28:19.225Z,1.70
2022-07-27T14:30:47.181Z,1.60
2022-07-27T14:33:15.082Z,1.58
2022-07-27T14:35:44.572Z,1.70
2022-07-27T14:38:12.638Z,1.90
2022-07-27T14:40:40.914Z,1.70
2022-07-27T14:43:09.713Z,1.90
2022-07-27T14:45:45.280Z,1.98
2022-07-27T14:48:21.488Z,1.67
2022-07-27T14:50:54.564Z,1.60
2022-07-27T14:53:22.333Z,1.40
2022-07-27T14:55:50.226Z,1.80
2022-07-27T14:58:18.133Z,1.70
2022-07-27T15:00:46.262Z,1.80
2022-07-27T15:03:15.130Z,1.70
2022-07-27T15:05:49.417Z,1.70
2022-07-27T15:08:20.362Z,1.60
2022-07-27T15:10:48.904Z,1.63
2022-07-27T15:13:18.147Z,1.70
2022-07-27T15:15:48.371Z,1.73
2022-07-27T15:18:18.710Z,1.90
2022-07-27T15:20:46.695Z,1.90
2022-07-27T15:23:14.469Z,1.88
2022-07-27T15:25:43.608Z,1.73
2022-07-27T15:28:12.119Z,1.70
2022-07-27T15:30:40.062Z,1.70
2022-07-27T15:33:08.425Z,2.00
2022-07-27T15:35:36.246Z,1.70
2022-07-27T15:38:04.235Z,1.70
2022-07-27T15:40:42.367Z,1.80
2022-07-27T15:43:13.612Z,1.92
2022-07-27T15:45:42.639Z,1.70
2022-07-27T15:48:12.196Z,1.80
2022-07-27T15:50:42.100Z,1.90
2022-07-27T15:53:10.878Z,1.80
2022-07-27T15:55:39.033Z,1.90
2022-07-27T15:58:08.179Z,1.88
2022-07-27T16:00:41.265Z,1.92
2022-07-27T16:03:10.127Z,1.70
2022-07-27T16:05:39.001Z,1.70
2022-07-27T16:08:09.548Z,1.70
2022-07-27T16:10:37.550Z,5.25
2022-07-27T16:13:05.986Z,2.00
2022-07-27T16:15:52.183Z,2.00
2022-07-27T16:18:21.869Z,2.05
2022-07-27T16:20:49.911Z,1.70
2022-07-27T16:23:21.170Z,2.13
2022-07-27T16:26:07.524Z,1.90
2022-07-27T16:28:39.400Z,1.80
2022-07-27T16:31:10.200Z,1.83
2022-07-27T16:33:41.216Z,1.80
2022-07-27T16:36:10.070Z,1.90
2022-07-27T16:38:38.271Z,1.90
2022-07-27T16:41:12.148Z,1.70
2022-07-27T16:43:40.026Z,1.98
2022-07-27T16:46:10.419Z,1.77
2022-07-27T16:48:42.612Z,1.83
2022-07-27T16:51:12.758Z,1.98
2022-07-27T16:53:42.270Z,1.80
2022-07-27T16:56:11.513Z,2.00
2022-07-27T16:58:40.186Z,1.65
2022-07-27T17:01:08.929Z,2.00
2022-07-27T17:03:37.702Z,2.03
2022-07-27T17:06:07.470Z,2.28
2022-07-27T17:08:36.653Z,1.90
2022-07-27T17:11:06.178Z,2.10
2022-07-27T17:13:34.916Z,1.90
2022-07-27T17:16:03.620Z,1.83
2022-07-27T17:18:37.240Z,1.90
2022-07-27T17:21:12.370Z,1.95
2022-07-27T17:23:40.588Z,1.90
2022-07-27T17:26:09.749Z,2.00
2022-07-27T17:28:39.332Z,2.05
2022-07-27T17:31:09.748Z,1.90
2022-07-27T17:33:38.310Z,2.00
2022-07-27T17:36:14.014Z,2.20
2022-07-27T17:38:42.798Z,1.80
2022-07-27T17:41:10.691Z,2.63
2022-07-27T17:43:39.413Z,2.00
2022-07-27T17:46:07.654Z,1.90
2022-07-27T17:48:35.738Z,1.90
2022-07-27T17:51:03.578Z,1.90
2022-07-27T17:53:32.772Z,1.80
2022-07-27T17:56:00.662Z,1.92
2022-07-27T17:58:30.495Z,1.90
2022-07-27T18:00:58.787Z,1.80
2022-07-27T18:03:27.069Z,1.90
2022-07-27T18:05:55.636Z,1.80
2022-07-27T18:08:25.550Z,1.77
2022-07-27T18:10:55.012Z,1.75
2022-07-27T18:13:22.965Z,2.00
2022-07-27T18:15:51.378Z,1.70
2022-07-27T18:18:22.114Z,2.00
2022-07-27T18:20:52.264Z,1.80
2022-07-27T18:23:20.986Z,1.77
2022-07-27T18:25:48.965Z,1.95
2022-07-27T18:28:18.960Z,1.85
2022-07-27T18:30:49.377Z,1.83
2022-07-27T18:33:18.149Z,1.70
2022-07-27T18:35:47.306Z,1.80
2022-07-27T18:38:16.815Z,1.90
2022-07-27T18:40:48.102Z,1.85
2022-07-27T18:43:16.551Z,2.60
2022-07-27T18:45:45.746Z,2.20
2022-07-27T18:48:13.560Z,1.98
2022-07-27T18:50:41.916Z,2.08
2022-07-27T18:53:10.291Z,1.95
2022-07-27T18:55:38.674Z,1.80
2022-07-27T18:58:06.951Z,1.90
2022-07-27T19:00:35.004Z,1.90
2022-07-27T19:03:04.700Z,1.88
2022-07-27T19:05:41.310Z,1.58
2022-07-27T19:08:13.146Z,1.80
2022-07-27T19:10:42.463Z,1.60
2022-07-27T19:13:10.725Z,1.80
2022-07-27T19:15:40.940Z,1.77
2022-07-27T19:18:10.154Z,1.88
2022-07-27T19:20:38.085Z,1.85
2022-07-27T19:23:05.966Z,2.00
2022-07-27T19:25:34.612Z,1.80
2022-07-27T19:28:02.664Z,1.80
2022-07-27T19:30:30.627Z,1.77
2022-07-27T19:32:59.016Z,1.88
2022-07-27T19:35:28.572Z,1.83
2022-07-27T19:37:56.379Z,2.00
2022-07-27T19:43:12.395Z,1.70
2022-07-27T19:45:40.428Z,1.80
2022-07-27T19:48:08.606Z,1.75
2022-07-27T19:50:38.031Z,1.90
2022-07-27T19:53:06.113Z,2.00
2022-07-27T19:55:34.587Z,1.80
2022-07-27T19:58:02.770Z,2.00
2022-07-27T20:00:33.528Z,1.90
2022-07-27T20:03:01.537Z,1.60
2022-07-27T20:05:29.696Z,2.07
2022-07-27T20:07:59.108Z,2.10
2022-07-27T20:10:27.140Z,1.97
2022-07-27T20:12:54.936Z,1.90
2022-07-27T20:15:22.868Z,2.10
2022-07-27T20:17:51.005Z,2.10
2022-07-27T20:20:19.003Z,2.03
2022-07-27T20:22:46.845Z,2.03
2022-07-27T20:25:18.388Z,2.07
2022-07-27T20:27:47.249Z,2.20
2022-07-27T20:30:17.213Z,2.20
2022-07-27T20:32:45.554Z,2.30
2022-07-27T20:35:13.336Z,2.40
2022-07-27T20:37:41.174Z,2.40
2022-07-27T20:40:11.512Z,2.10
2022-07-27T20:42:41.427Z,2.07
2022-07-27T20:45:11.513Z,2.30
2022-07-27T20:47:39.662Z,2.17
2022-07-27T20:50:09.136Z,2.20
2022-07-27T20:52:36.984Z,2.30
2022-07-27T20:55:05.678Z,1.90
2022-07-27T20:57:33.706Z,2.37
2022-07-27T21:00:03.054Z,2.20
2022-07-27T21:02:30.870Z,2.20
2022-07-27T21:04:59.296Z,2.40
2022-07-27T21:07:27.982Z,2.07
2022-07-27T21:09:55.747Z,2.30
2022-07-27T21:12:23.556Z,2.20
2022-07-27T21:14:51.342Z,2.10
2022-07-27T21:17:20.619Z,2.43
2022-07-27T21:19:48.431Z,2.30
2022-07-27T21:22:16.213Z,2.10
2022-07-27T21:24:43.004Z,2.43
2022-07-27T21:27:12.696Z,2.20
2022-07-27T21:29:40.705Z,2.20
2022-07-27T21:32:08.582Z,2.40
2022-07-27T21:34:37.715Z,2.20
2022-07-27T21:37:05.492Z,2.30
2022-07-27T21:39:33.394Z,2.20
2022-07-27T21:42:02.402Z,2.50
2022-07-27T21:44:30.501Z,2.23
2022-07-27T21:46:58.254Z,2.40
2022-07-27T21:49:33.994Z,2.10
2022-07-27T21:52:03.663Z,2.40
2022-07-27T21:54:31.403Z,2.40
2022-07-27T21:56:59.181Z,2.20
2022-07-27T21:59:26.934Z,2.23
2022-07-27T22:01:54.738Z,2.10
2022-07-27T22:04:23.139Z,2.40
2022-07-27T22:06:51.043Z,2.40
2022-07-27T22:09:21.047Z,2.40
2022-07-27T22:11:48.881Z,2.40
2022-07-27T22:14:17.416Z,2.30
2022-07-27T22:16:45.619Z,2.70
2022-07-27T22:19:14.155Z,2.20
2022-07-27T22:21:41.952Z,2.30
2022-07-27T22:24:10.144Z,2.30
2022-07-27T22:26:39.976Z,2.83
2022-07-27T22:29:07.876Z,2.33
2022-07-27T22:31:35.668Z,2.87
2022-07-27T22:34:03.490Z,2.80
2022-07-27T22:36:32.443Z,2.60
2022-07-27T22:39:00.344Z,2.90
2022-07-27T22:41:28.111Z,2.50
2022-07-27T22:43:57.516Z,2.80
2022-07-27T22:46:25.905Z,2.70
2022-07-27T22:48:54.006Z,2.80
2022-07-27T22:51:21.917Z,2.70
2022-07-27T22:53:49.694Z,2.87
2022-07-27T22:56:17.649Z,2.83
2022-07-27T22:58:45.857Z,3.00
2022-07-27T23:01:46.431Z,3.10
2022-07-27T23:04:03.125Z,2.93
2022-07-27T23:06:30.946Z,2.73
2022-07-27T23:08:58.705Z,2.70
2022-07-27T23:11:26.464Z,2.90
2022-07-27T23:13:54.467Z,3.20
2022-07-27T23:16:23.744Z,3.20
2022-07-27T23:18:51.621Z,3.13
2022-07-27T23:21:19.400Z,2.80
2022-07-27T23:23:53.442Z,3.20
2022-07-27T23:26:23.045Z,3.10
2022-07-27T23:28:54.120Z,3.07
2022-07-27T23:31:23.527Z,3.20
2022-07-27T23:33:51.430Z,3.00
2022-07-27T23:36:19.252Z,3.00
2022-07-27T23:38:47.630Z,3.37
2022-07-27T23:41:16.651Z,2.87
2022-07-27T23:43:45.022Z,3.10
2022-07-27T23:46:12.986Z,3.20
2022-07-27T23:48:42.355Z,3.30
2022-07-27T23:51:10.194Z,3.20
2022-07-27T23:53:37.972Z,3.07
2022-07-27T23:56:06.359Z,3.37
2022-07-27T23:58:34.186Z,3.50
